Time;durP1;ratioP1;P1;durP2;ratioP2;P2;SDS_P1;SDS_P2;PMS_P1;PMS_P2;Temp;Humidity;BMP_temperature;BMP_pressure;BME280_temperature;BME280_humidity;BME280_pressure;Samples;Min_cycle;Max_cycle;Signal;HPM_P1;HPM_P2
2022/09/15 00:02:09;;;;;;;7.93;0.70;;;;;;;22.56;100.00;99966.41;4997250;28;20037;-88
2022/09/15 00:04:35;;;;;;;7.82;1.00;;;;;;;22.49;100.00;99974.50;5010145;28;20045;-86
2022/09/15 00:07:01;;;;;;;9.18;1.27;;;;;;;22.44;100.00;99977.06;5021015;28;20032;-91
2022/09/15 00:09:26;;;;;;;5.53;1.05;;;;;;;22.39;100.00;99976.13;5003990;28;20057;-89
2022/09/15 00:11:52;;;;;;;13.75;1.30;;;;;;;22.34;100.00;99983.97;5006090;28;20044;-90
2022/09/15 00:14:17;;;;;;;8.43;1.00;;;;;;;22.27;100.00;99978.81;5004663;28;20030;-91
2022/09/15 00:16:43;;;;;;;8.15;1.23;;;;;;;22.23;100.00;99975.00;4998973;28;20463;-85
2022/09/15 00:19:08;;;;;;;12.20;1.85;;;;;;;22.18;100.00;99972.25;5010509;28;20062;-89
2022/09/15 00:21:37;;;;;;;8.13;1.38;;;;;;;22.13;100.00;99967.66;5009735;28;20030;-86
2022/09/15 00:24:03;;;;;;;8.27;1.42;;;;;;;22.08;100.00;99970.19;5009310;28;20057;-90
2022/09/15 00:26:29;;;;;;;5.13;1.05;;;;;;;22.05;100.00;99970.66;5010606;28;20532;-87
2022/09/15 00:28:56;;;;;;;10.35;1.38;;;;;;;22.09;100.00;99971.78;4993587;28;20033;-86
2022/09/15 00:31:24;;;;;;;4.72;0.95;;;;;;;22.05;100.00;99970.66;4991106;28;20026;-86
2022/09/15 00:33:52;;;;;;;9.95;1.27;;;;;;;21.99;100.00;99960.13;4991679;28;20069;-86
2022/09/15 00:36:18;;;;;;;7.15;1.15;;;;;;;21.92;100.00;99954.94;5010615;28;20080;-89
2022/09/15 00:38:44;;;;;;;8.23;1.60;;;;;;;21.86;100.00;99954.00;4991018;28;20452;-86
2022/09/15 00:41:12;;;;;;;9.68;1.50;;;;;;;21.81;100.00;99947.78;4991217;28;20092;-91
2022/09/15 00:43:48;;;;;;;10.35;1.52;;;;;;;21.74;100.00;99944.44;4990478;28;20054;-84
2022/09/15 00:46:16;;;;;;;6.75;1.10;;;;;;;21.73;100.00;99941.00;4991518;28;20022;-85
2022/09/15 00:48:59;;;;;;;7.13;1.45;;;;;;;21.71;100.00;99942.25;5009204;28;20524;-88
2022/09/15 00:51:51;;;;;;;9.32;1.75;;;;;;;21.64;100.00;99947.66;5008271;28;20036;-86
2022/09/15 00:54:25;;;;;;;14.02;1.85;;;;;;;21.60;100.00;99935.09;4990361;28;20037;-89
2022/09/15 00:56:54;;;;;;;9.35;1.38;;;;;;;21.58;100.00;99942.47;5008021;28;20037;-86
2022/09/15 00:59:23;;;;;;;7.30;1.40;;;;;;;21.56;100.00;99944.53;4990068;28;20045;-86
2022/09/15 01:01:55;;;;;;;6.82;1.30;;;;;;;21.51;100.00;99935.44;4990869;28;20122;-89
2022/09/15 01:04:21;;;;;;;6.65;1.65;;;;;;;21.46;100.00;99940.59;4991177;28;20048;-88
2022/09/15 01:06:54;;;;;;;10.10;1.50;;;;;;;21.44;100.00;99939.22;4992175;28;20117;-85
2022/09/15 01:09:26;;;;;;;9.20;1.30;;;;;;;21.39;100.00;99937.25;5007326;28;20481;-90
2022/09/15 01:11:52;;;;;;;5.93;1.35;;;;;;;21.39;100.00;99949.69;5008911;28;20046;-87
2022/09/15 01:14:17;;;;;;;7.95;1.55;;;;;;;21.38;100.00;99951.53;4992903;28;20382;-90
2022/09/15 01:17:03;;;;;;;11.77;1.60;;;;;;;21.35;100.00;99944.03;5008255;28;20080;-88
2022/09/15 01:19:53;;;;;;;9.07;1.30;;;;;;;21.35;100.00;99946.69;5009282;28;20030;-87
2022/09/15 01:22:38;;;;;;;5.43;1.40;;;;;;;21.36;100.00;99945.66;4990742;28;20556;-87
2022/09/15 01:25:34;;;;;;;11.23;2.03;;;;;;;21.37;100.00;99944.63;4977899;28;20572;-85
2022/09/15 01:28:23;;;;;;;10.35;1.17;;;;;;;21.34;100.00;99929.16;4991058;28;20053;-86
2022/09/15 01:31:01;;;;;;;12.30;1.73;;;;;;;21.33;100.00;99924.91;5009028;28;20121;-87
2022/09/15 01:33:39;;;;;;;10.77;1.83;;;;;;;21.34;100.00;99931.00;4991935;28;20037;-89
2022/09/15 01:36:13;;;;;;;5.47;1.60;;;;;;;21.34;100.00;99926.50;4990792;28;20033;-90
2022/09/15 01:39:01;;;;;;;15.93;1.85;;;;;;;21.37;100.00;99936.66;5009141;28;20258;-89
2022/09/15 01:41:30;;;;;;;8.63;1.73;;;;;;;21.45;100.00;99932.88;5005168;28;20489;-90
2022/09/15 01:44:07;;;;;;;6.63;1.58;;;;;;;21.46;100.00;99935.31;5007082;28;20505;-85
2022/09/15 01:46:39;;;;;;;12.50;1.50;;;;;;;21.48;100.00;99927.94;5005593;28;20124;-85
2022/09/15 01:49:08;;;;;;;8.60;1.23;;;;;;;21.52;100.00;99930.94;5005337;28;20121;-88
2022/09/15 01:51:36;;;;;;;8.30;1.40;;;;;;;21.50;100.00;99923.22;5005956;28;20544;-86
2022/09/15 01:54:05;;;;;;;8.52;1.60;;;;;;;21.47;100.00;99923.66;5006439;28;20041;-87
2022/09/15 01:56:31;;;;;;;4.15;1.10;;;;;;;21.42;100.00;99920.88;5008016;28;20038;-86
2022/09/15 01:58:56;;;;;;;10.48;2.38;;;;;;;21.37;100.00;99914.66;5007776;28;20042;-88
2022/09/15 02:01:33;;;;;;;6.70;1.30;;;;;;;21.30;100.00;99901.50;4986955;28;20022;-86
2022/09/15 02:04:29;;;;;;;8.88;1.52;;;;;;;21.28;100.00;99908.06;5007238;28;20208;-86
2022/09/15 02:07:02;;;;;;;4.97;1.23;;;;;;;21.27;100.00;99896.66;4989583;28;20053;-90
2022/09/15 02:09:35;;;;;;;9.07;1.65;;;;;;;21.26;100.00;99908.31;5006757;28;20532;-88
2022/09/15 02:12:28;;;;;;;4.35;0.95;;;;;;;21.25;100.00;99900.59;4989782;28;20093;-89
2022/09/15 02:15:04;;;;;;;7.13;1.20;;;;;;;21.21;100.00;99916.16;4975178;28;20384;-86
2022/09/15 02:17:34;;;;;;;8.93;1.02;;;;;;;21.23;100.00;99918.56;4989672;28;20449;-86
2022/09/15 02:20:19;;;;;;;7.22;1.30;;;;;;;21.24;100.00;99909.59;4990237;28;20444;-85
2022/09/15 02:22:49;;;;;;;9.63;1.70;;;;;;;21.27;100.00;99925.81;5006469;28;20168;-88
2022/09/15 02:25:23;;;;;;;5.20;1.33;;;;;;;21.41;100.00;99916.63;5007923;28;20033;-88
2022/09/15 02:27:53;;;;;;;9.07;1.40;;;;;;;21.53;100.00;99927.25;4989534;28;20069;-87
2022/09/15 02:30:20;;;;;;;9.07;1.27;;;;;;;21.56;100.00;99913.53;5008292;28;20026;-85
2022/09/15 02:32:59;;;;;;;9.48;1.60;;;;;;;21.58;100.00;99916.78;4985896;28;20168;-84
2022/09/15 02:35:27;;;;;;;9.25;1.02;;;;;;;21.60;100.00;99919.19;5008559;28;20173;-88
2022/09/15 02:37:54;;;;;;;6.28;0.95;;;;;;;21.57;100.00;99909.03;5006051;28;20032;-88
2022/09/15 02:40:20;;;;;;;11.48;1.48;;;;;;;21.57;100.00;99899.25;4989702;28;20061;-86
2022/09/15 02:42:56;;;;;;;5.18;0.60;;;;;;;21.58;100.00;99897.41;4987834;28;20054;-84
2022/09/15 02:45:23;;;;;;;6.75;1.10;;;;;;;21.57;100.00;99890.50;4987695;28;20091;-84
2022/09/15 02:47:49;;;;;;;5.63;1.05;;;;;;;21.57;100.00;99893.94;5006501;28;20053;-86
2022/09/15 02:50:16;;;;;;;7.93;2.30;;;;;;;21.53;100.00;99885.66;5007302;28;20034;-88
2022/09/15 02:52:42;;;;;;;7.07;1.05;;;;;;;21.51;100.00;99884.25;4989629;28;20029;-89
2022/09/15 02:55:08;;;;;;;6.30;1.70;;;;;;;21.44;100.00;99873.78;4991006;28;20030;-90
2022/09/15 02:57:33;;;;;;;5.47;0.98;;;;;;;21.40;100.00;99867.31;4987513;28;20452;-85
2022/09/15 03:00:15;;;;;;;8.30;1.60;;;;;;;21.38;100.00;99872.03;4990720;28;20022;-86
2022/09/15 03:02:44;;;;;;;11.30;1.17;;;;;;;21.39;100.00;99870.19;4989890;28;20400;-88
2022/09/15 03:05:11;;;;;;;8.20;1.30;;;;;;;21.39;100.00;99868.34;5307856;22;20056;-87
2022/09/15 03:07:37;;;;;;;2.72;0.98;;;;;;;21.40;100.00;99866.50;5028237;28;20037;-88
2022/09/15 03:10:04;;;;;;;4.68;0.70;;;;;;;21.39;100.00;99867.53;5010169;28;20021;-89
2022/09/15 03:12:35;;;;;;;9.30;1.25;;;;;;;21.39;100.00;99863.03;5010078;28;20578;-87
2022/09/15 03:15:01;;;;;;;2.92;0.70;;;;;;;21.38;100.00;99853.47;5028692;28;20128;-87
2022/09/15 03:17:26;;;;;;;10.18;1.27;;;;;;;21.37;100.00;99861.66;5026817;28;20053;-86
2022/09/15 03:19:52;;;;;;;8.10;0.88;;;;;;;21.36;100.00;99855.56;5010307;28;20130;-91
2022/09/15 03:22:17;;;;;;;6.53;1.10;;;;;;;21.33;100.00;99845.41;5027901;28;20072;-89
2022/09/15 03:24:42;;;;;;;6.38;0.95;;;;;;;21.33;100.00;99840.13;5027725;28;20025;-89
2022/09/15 03:27:08;;;;;;;5.05;0.80;;;;;;;21.31;100.00;99828.94;5009800;28;20040;-90
2022/09/15 03:29:33;;;;;;;5.38;0.95;;;;;;;21.32;100.00;99814.66;5009897;28;20501;-87
2022/09/15 03:31:59;;;;;;;4.28;0.70;;;;;;;21.34;100.00;99809.13;5026269;28;20041;-90
2022/09/15 03:34:24;;;;;;;6.10;1.23;;;;;;;21.35;100.00;99800.16;5027521;28;20025;-91
2022/09/15 03:36:50;;;;;;;10.43;1.17;;;;;;;21.37;100.00;99790.13;5028090;28;20535;-91
2022/09/15 03:39:15;;;;;;;8.18;1.17;;;;;;;21.40;100.00;99790.47;5009912;28;20144;-88
2022/09/15 03:41:41;;;;;;;7.10;1.27;;;;;;;21.41;100.00;99799.22;5026207;28;20125;-90
2022/09/15 03:44:06;;;;;;;5.47;0.75;;;;;;;21.42;100.00;99804.28;5010136;28;20040;-86
2022/09/15 03:46:32;;;;;;;2.88;0.77;;;;;;;21.41;100.00;99809.81;5026441;28;20029;-86
2022/09/15 03:48:57;;;;;;;4.53;1.25;;;;;;;21.40;100.00;99808.22;5009842;28;20042;-87
2022/09/15 03:51:23;;;;;;;5.97;0.80;;;;;;;21.37;100.00;99814.78;5009828;28;20032;-88
2022/09/15 03:53:48;;;;;;;6.32;0.73;;;;;;;21.36;100.00;99821.09;5010728;28;20044;-89
2022/09/15 03:56:30;;;;;;;8.00;0.77;;;;;;;21.31;100.00;99820.19;5010701;28;20554;-87
2022/09/15 03:58:57;;;;;;;4.40;0.93;;;;;;;21.27;100.00;99833.09;5011179;28;20040;-90
2022/09/15 04:01:22;;;;;;;7.28;0.95;;;;;;;21.23;100.00;99855.00;5010671;28;20036;-88
2022/09/15 04:03:49;;;;;;;3.50;1.17;;;;;;;21.21;100.00;99873.75;5026575;28;20499;-87
2022/09/15 04:06:14;;;;;;;8.63;0.68;;;;;;;21.22;100.00;99874.56;5027747;28;20108;-85
2022/09/15 04:08:40;;;;;;;6.22;0.70;;;;;;;21.22;100.00;99888.63;5010691;28;20025;-86
2022/09/15 04:11:17;;;;;;;;;;;;;;;;;;;;;
2022/09/15 04:13:46;;;;;;;4.68;0.77;;;;;;;21.28;100.00;99853.25;5031325;28;20031;-87
2022/09/15 04:16:15;;;;;;;7.28;0.70;;;;;;;21.28;100.00;99847.94;5012942;28;20445;-88
2022/09/15 04:18:40;;;;;;;4.07;0.38;;;;;;;21.28;100.00;99858.53;5013104;28;20037;-90
2022/09/15 04:21:11;;;;;;;6.93;0.50;;;;;;;21.27;100.00;99872.03;5031191;28;20021;-88
2022/09/15 04:23:38;;;;;;;3.50;0.75;;;;;;;21.26;100.00;99881.84;5012903;28;20374;-89
2022/09/15 04:26:12;;;;;;;8.65;0.68;;;;;;;21.31;100.00;99873.19;5012607;28;20080;-90
2022/09/15 04:28:38;;;;;;;3.40;0.90;;;;;;;21.33;100.00;99866.63;5012913;28;20116;-88
2022/09/15 04:31:13;;;;;;;5.72;0.63;;;;;;;21.32;100.00;99854.41;5029440;28;20586;-88
2022/09/15 04:33:41;;;;;;;6.53;0.97;;;;;;;21.32;100.00;99857.03;5029501;28;20033;-88
2022/09/15 04:36:12;;;;;;;7.68;0.65;;;;;;;21.31;100.00;99850.13;5012892;28;20272;-86
2022/09/15 04:38:38;;;;;;;4.00;0.30;;;;;;;21.31;100.00;99858.09;5030688;28;20029;-88
2022/09/15 04:41:04;;;;;;;6.93;0.77;;;;;;;21.32;100.00;99865.00;5012562;28;20032;-87
2022/09/15 04:43:31;;;;;;;6.85;0.80;;;;;;;21.42;100.00;99875.84;5012742;28;20072;-90
2022/09/15 04:45:59;;;;;;;8.40;0.82;;;;;;;21.44;100.00;99865.00;5012690;28;20481;-87
2022/09/15 04:48:25;;;;;;;8.20;0.47;;;;;;;21.43;100.00;99861.56;5012069;28;20040;-89
2022/09/15 04:50:59;;;;;;;5.35;0.60;;;;;;;21.42;100.00;99854.63;5012596;28;20037;-86
2022/09/15 04:53:24;;;;;;;3.45;0.40;;;;;;;21.40;100.00;99862.00;5012244;28;20459;-86
2022/09/15 04:55:50;;;;;;;6.03;0.75;;;;;;;21.37;100.00;99874.91;5028830;28;20124;-88
2022/09/15 04:58:15;;;;;;;7.05;0.50;;;;;;;21.31;100.00;99876.63;5011902;28;20484;-90
2022/09/15 05:00:44;;;;;;;7.00;0.43;;;;;;;21.31;100.00;99878.47;5011649;28;20035;-88
2022/09/15 05:03:12;;;;;;;7.18;0.50;;;;;;;21.31;100.00;99881.94;5026976;28;20029;-90
2022/09/15 05:05:38;;;;;;;5.47;0.70;;;;;;;21.30;100.00;99880.31;5000925;28;20049;-86
2022/09/15 05:08:04;;;;;;;8.55;0.93;;;;;;;21.30;100.00;99885.63;5008662;28;20042;-90
2022/09/15 05:10:30;;;;;;;9.45;1.20;;;;;;;21.31;100.00;99895.19;5025580;28;20112;-90
2022/09/15 05:12:55;;;;;;;8.70;0.75;;;;;;;21.33;100.00;99898.41;5025545;28;20022;-87
2022/09/15 05:15:21;;;;;;;7.18;1.00;;;;;;;21.34;100.00;99894.72;5010195;28;20494;-89
2022/09/15 05:17:48;;;;;;;5.80;0.80;;;;;;;21.35;100.00;99896.34;5008986;28;20507;-87
2022/09/15 05:20:14;;;;;;;4.80;1.38;;;;;;;21.38;100.00;99903.03;5008419;28;20100;-89
2022/09/15 05:22:39;;;;;;;6.90;1.20;;;;;;;21.37;100.00;99893.47;5024962;28;20128;-88
2022/09/15 05:25:05;;;;;;;6.30;0.55;;;;;;;21.38;100.00;99901.19;5010284;28;20030;-90
2022/09/15 05:27:32;;;;;;;5.28;0.70;;;;;;;21.40;100.00;99907.06;5008566;28;20065;-90
2022/09/15 05:29:58;;;;;;;8.52;1.00;;;;;;;21.40;100.00;99903.59;5009959;28;20117;-92
2022/09/15 05:32:23;;;;;;;5.05;0.63;;;;;;;21.41;100.00;99908.69;5010125;28;20516;-92
2022/09/15 05:34:51;;;;;;;12.95;1.13;;;;;;;21.43;100.00;99903.97;5009892;28;20087;-88
2022/09/15 05:37:17;;;;;;;4.35;0.43;;;;;;;21.45;100.00;99909.84;5007987;28;20120;-85
2022/09/15 05:39:42;;;;;;;4.63;0.50;;;;;;;21.49;100.00;99913.66;5009694;28;20184;-87
2022/09/15 05:42:08;;;;;;;7.45;0.40;;;;;;;21.51;100.00;99919.53;5009659;28;20135;-87
2022/09/15 05:44:34;;;;;;;5.43;0.65;;;;;;;21.58;100.00;99916.78;5009477;28;20084;-90
2022/09/15 05:47:00;;;;;;;4.10;0.50;;;;;;;21.61;100.00;99918.16;5008419;28;20382;-91
2022/09/15 05:49:27;;;;;;;3.47;0.43;;;;;;;21.61;100.00;99921.63;5012659;28;20046;-85
2022/09/15 05:52:02;;;;;;;4.85;0.60;;;;;;;21.61;100.00;99926.09;5013887;28;20025;-89
2022/09/15 05:54:28;;;;;;;5.60;0.80;;;;;;;21.60;100.00;99924.50;5008943;28;20188;-87
2022/09/15 05:56:53;;;;;;;5.50;0.80;;;;;;;21.60;100.00;99927.94;5013366;28;20477;-87
2022/09/15 05:59:19;;;;;;;6.90;0.50;;;;;;;21.63;100.00;99934.63;5007835;28;20022;-88
2022/09/15 06:01:44;;;;;;;9.80;0.40;;;;;;;21.70;100.00;99930.03;5024259;28;20028;-88
2022/09/15 06:04:10;;;;;;;2.90;0.52;;;;;;;21.81;100.00;99927.38;5009178;28;20030;-88
2022/09/15 06:06:35;;;;;;;6.50;0.45;;;;;;;21.91;100.00;99916.19;5009504;28;20054;-89
2022/09/15 06:09:04;;;;;;;7.93;0.65;;;;;;;21.96;100.00;99918.16;4991647;28;20022;-88
2022/09/15 06:11:32;;;;;;;5.05;0.75;;;;;;;22.04;100.00;99915.16;5008082;28;20040;-89
2022/09/15 06:13:59;;;;;;;5.90;0.47;;;;;;;22.10;100.00;99911.59;4991563;28;20045;-89
2022/09/15 06:16:25;;;;;;;5.82;0.70;;;;;;;22.13;100.00;99913.78;5009096;28;20469;-85
2022/09/15 06:18:52;;;;;;;5.20;0.73;;;;;;;22.14;100.00;99918.84;5009047;28;20029;-89
2022/09/15 06:21:23;;;;;;;5.85;0.50;;;;;;;22.12;100.00;99910.31;5008995;28;20535;-89
2022/09/15 06:24:00;;;;;;;5.70;0.68;;;;;;;22.12;100.00;99905.00;5009059;28;20044;-87
2022/09/15 06:26:26;;;;;;;5.63;0.43;;;;;;;22.16;100.00;99892.91;5009611;28;20053;-92
2022/09/15 06:29:10;;;;;;;5.57;0.50;;;;;;;22.25;100.00;99906.59;4991756;28;20053;-87
2022/09/15 06:31:36;;;;;;;7.80;0.77;;;;;;;22.31;100.00;99903.00;4990679;28;20045;-85
2022/09/15 06:34:02;;;;;;;4.35;0.60;;;;;;;22.33;100.00;99898.25;5008876;28;20030;-90
2022/09/15 06:36:30;;;;;;;10.70;0.90;;;;;;;22.31;100.00;99904.84;4991245;28;20018;-85
2022/09/15 06:38:56;;;;;;;8.25;1.08;;;;;;;22.33;100.00;99903.56;5008611;28;20405;-84
2022/09/15 06:41:22;;;;;;;8.07;0.90;;;;;;;22.36;100.00;99902.28;4991000;28;20026;-87
2022/09/15 06:43:48;;;;;;;7.40;0.50;;;;;;;22.40;100.00;99908.75;4990927;28;20116;-90
2022/09/15 06:46:19;;;;;;;7.45;0.75;;;;;;;22.42;100.00;99911.97;5008894;28;20195;-86
2022/09/15 06:48:45;;;;;;;4.47;0.50;;;;;;;22.42;100.00;99907.47;5007570;28;20481;-90
2022/09/15 06:51:12;;;;;;;6.88;1.00;;;;;;;22.47;100.00;99902.25;4990943;28;20146;-88
2022/09/15 06:53:38;;;;;;;5.95;0.70;;;;;;;22.57;100.00;99906.97;5008637;28;20030;-88
2022/09/15 06:56:09;;;;;;;9.88;0.90;;;;;;;22.64;100.00;99904.97;5008610;28;20102;-88
2022/09/15 06:58:36;;;;;;;7.03;0.73;;;;;;;22.65;100.00;99900.47;4990972;28;20037;-89
2022/09/15 07:01:04;;;;;;;7.95;0.90;;;;;;;22.63;100.00;99887.44;5008410;28;20021;-87
2022/09/15 07:03:30;;;;;;;7.47;0.80;;;;;;;22.58;100.00;99884.69;5008314;28;20084;-90
2022/09/15 07:05:56;;;;;;;9.27;1.02;;;;;;;22.56;100.00;99885.97;4999592;28;20528;-91
2022/09/15 07:08:21;;;;;;;10.55;1.30;;;;;;;22.53;100.00;99871.31;5008459;28;20064;-87
2022/09/15 07:10:47;;;;;;;8.25;0.90;;;;;;;22.50;100.00;99872.59;5023350;28;20112;-87
2022/09/15 07:13:12;;;;;;;7.97;1.27;;;;;;;22.46;100.00;99862.69;5010473;28;20139;-88
2022/09/15 07:15:38;;;;;;;7.65;0.93;;;;;;;22.40;100.00;99874.25;5007166;28;20163;-90
2022/09/15 07:18:04;;;;;;;10.80;1.13;;;;;;;22.44;100.00;99870.88;5008417;28;20022;-86
2022/09/15 07:20:50;;;;;;;7.50;0.98;;;;;;;22.52;100.00;99854.59;5008639;28;20377;-86
2022/09/15 07:23:16;;;;;;;;;;;;;;;22.59;100.00;99856.28;5008417;28;20601;-91
2022/09/15 07:25:43;;;;;;;10.20;1.42;;;;;;;22.64;100.00;99841.25;5006738;28;19924;-90
2022/09/15 07:28:10;;;;;;;9.77;1.35;;;;;;;22.67;100.00;99839.97;5023682;28;20437;-88
2022/09/15 07:30:37;;;;;;;13.82;1.70;;;;;;;22.72;100.00;99843.50;5006699;28;20444;-86
2022/09/15 07:33:04;;;;;;;11.43;1.42;;;;;;;22.80;100.00;99845.81;5008521;28;20026;-90
2022/09/15 07:35:29;;;;;;;16.35;1.42;;;;;;;22.86;100.00;99841.41;5023288;28;20030;-88
2022/09/15 07:37:55;;;;;;;10.48;1.75;;;;;;;22.86;100.00;99843.25;5007940;28;20560;-88
2022/09/15 07:40:20;;;;;;;14.73;1.50;;;;;;;22.82;100.00;99837.59;5006687;28;20030;-87
2022/09/15 07:42:46;;;;;;;8.23;1.45;;;;;;;22.78;100.00;99834.63;5007447;28;20032;-86
2022/09/15 07:45:11;;;;;;;10.23;1.40;;;;;;;22.76;100.00;99833.22;5026705;28;20646;-87
2022/09/15 07:47:37;;;;;;;10.05;1.75;;;;;;;22.73;100.00;99845.13;5026859;28;20022;-87
2022/09/15 07:50:05;;;;;;;12.95;0.98;;;;;;;22.75;100.00;99845.69;5012084;28;20033;-86
2022/09/15 07:52:31;;;;;;;10.88;2.03;;;;;;;22.81;100.00;99854.59;5026543;28;20036;-89
2022/09/15 07:54:56;;;;;;;8.27;1.25;;;;;;;22.82;100.00;99859.66;5019060;28;20177;-87
2022/09/15 07:57:21;;;;;;;13.68;1.75;;;;;;;22.79;100.00;99876.06;5028432;28;20511;-89
2022/09/15 07:59:47;;;;;;;5.25;1.17;;;;;;;22.78;100.00;99863.81;5031510;28;20431;-88
2022/09/15 08:02:17;;;;;;;17.25;1.95;;;;;;;22.75;100.00;99863.47;5031234;28;20365;-88
2022/09/15 08:04:43;;;;;;;11.57;0.82;;;;;;;22.73;100.00;99862.91;5030735;28;20097;-91
2022/09/15 08:07:19;;;;;;;;;;;;;;;;;;;;;
2022/09/15 08:09:45;;;;;;;10.02;0.82;;;;;;;22.64;100.00;99857.19;5031515;28;20375;-87
2022/09/15 08:12:11;;;;;;;10.63;1.40;;;;;;;22.64;100.00;99840.47;5017303;28;20044;-87
2022/09/15 08:14:37;;;;;;;14.38;1.40;;;;;;;22.61;100.00;99841.75;5011803;28;20550;-84
2022/09/15 08:17:03;;;;;;;8.48;1.27;;;;;;;22.61;100.00;99831.13;5019455;28;20052;-88
2022/09/15 08:19:31;;;;;;;7.30;1.10;;;;;;;22.61;100.00;99831.13;5012950;28;20029;-86
2022/09/15 08:21:57;;;;;;;6.53;0.73;;;;;;;22.65;100.00;99824.28;5013014;28;20030;-84
2022/09/15 08:24:23;;;;;;;12.43;1.00;;;;;;;22.70;100.00;99797.00;5031111;28;20052;-86
2022/09/15 08:26:49;;;;;;;10.90;1.73;;;;;;;22.73;100.00;99786.69;5009054;28;20482;-86
2022/09/15 08:29:16;;;;;;;8.55;1.48;;;;;;;22.81;100.00;99772.25;5009718;28;20466;-88
2022/09/15 08:31:43;;;;;;;16.05;1.80;;;;;;;22.89;100.00;99781.69;5011957;28;20029;-86
2022/09/15 08:34:11;;;;;;;15.25;1.45;;;;;;;22.95;100.00;99818.72;5010912;28;20048;-86
2022/09/15 08:36:36;;;;;;;9.20;1.45;;;;;;;22.99;100.00;99824.34;5011064;28;20030;-86
2022/09/15 08:39:03;;;;;;;10.18;1.65;;;;;;;23.01;100.00;99808.97;5030840;28;20033;-88
2022/09/15 08:41:35;;;;;;;7.32;1.00;;;;;;;22.98;100.00;99782.88;5030015;28;20441;-85
2022/09/15 08:44:21;;;;;;;11.85;1.35;;;;;;;22.91;100.00;99767.13;5031408;28;20033;-86
2022/09/15 08:47:00;;;;;;;6.55;1.30;;;;;;;22.96;100.00;99790.28;5022546;28;20559;-89
2022/09/15 08:49:44;;;;;;;6.80;1.00;;;;;;;23.01;100.00;99811.63;5031682;28;20055;-86
2022/09/15 08:52:19;;;;;;;6.90;0.80;;;;;;;22.98;100.00;99831.50;5014059;28;20045;-85
2022/09/15 08:54:44;;;;;;;8.07;0.93;;;;;;;22.94;100.00;99825.06;5030921;28;20063;-85
2022/09/15 08:57:17;;;;;;;7.32;1.15;;;;;;;22.90;100.00;99823.94;5017649;28;20420;-85
2022/09/15 08:59:43;;;;;;;7.05;1.15;;;;;;;22.83;100.00;99824.09;4993544;28;20033;-87
2022/09/15 09:02:28;;;;;;;9.63;1.13;;;;;;;22.78;100.00;99837.28;4993579;28;20404;-86
2022/09/15 09:05:04;;;;;;;9.37;1.33;;;;;;;22.76;100.00;99854.47;5011656;28;20050;-88
2022/09/15 09:07:40;;;;;;;9.88;1.08;;;;;;;22.73;100.00;99869.03;5019277;28;20021;-88
2022/09/15 09:10:06;;;;;;;13.93;1.48;;;;;;;22.72;100.00;99887.84;5007166;28;20033;-89
2022/09/15 09:12:50;;;;;;;16.63;2.03;;;;;;;22.65;100.00;99890.66;5011674;28;20408;-85
2022/09/15 09:15:45;;;;;;;15.13;1.33;;;;;;;22.52;100.00;99896.25;5011646;28;20033;-86
2022/09/15 09:18:40;;;;;;;11.75;1.30;;;;;;;22.53;100.00;99887.25;5025673;28;20149;-85
2022/09/15 09:21:12;;;;;;;12.00;1.70;;;;;;;22.64;100.00;99888.25;5033657;28;20037;-87
2022/09/15 09:23:56;;;;;;;13.10;1.77;;;;;;;22.77;100.00;99877.31;5031600;28;20029;-86
2022/09/15 09:26:22;;;;;;;14.80;1.95;;;;;;;22.86;100.00;99851.22;5028044;28;20103;-88
2022/09/15 09:29:10;;;;;;;13.30;1.73;;;;;;;22.90;100.00;99844.38;5013631;28;20480;-87
2022/09/15 09:31:36;;;;;;;17.58;2.25;;;;;;;22.99;100.00;99835.78;5031608;28;20045;-86
2022/09/15 09:34:21;;;;;;;13.48;2.50;;;;;;;22.99;100.00;99832.31;5031866;28;20075;-87
2022/09/15 09:37:07;;;;;;;14.18;1.48;;;;;;;22.96;100.00;99827.47;5013151;28;20124;-86
2022/09/15 09:39:33;;;;;;;12.15;2.03;;;;;;;22.97;100.00;99821.13;5013630;28;20025;-86
2022/09/15 09:41:59;;;;;;;11.05;1.58;;;;;;;22.93;100.00;99817.34;5030268;28;20037;-89
2022/09/15 09:44:30;;;;;;;11.82;1.58;;;;;;;22.83;100.00;99826.75;5018448;28;20048;-87
2022/09/15 09:46:57;;;;;;;13.68;1.15;;;;;;;22.70;100.00;99813.72;5015245;28;20033;-88
2022/09/15 09:49:27;;;;;;;11.90;1.13;;;;;;;22.59;100.00;99813.81;5014174;28;20029;-90
2022/09/15 09:52:01;;;;;;;11.05;1.05;;;;;;;22.47;100.00;99803.25;5012479;28;20029;-87
2022/09/15 09:54:30;;;;;;;19.52;1.65;;;;;;;22.40;100.00;99786.66;5029933;28;20029;-86
2022/09/15 09:57:11;;;;;;;16.40;2.00;;;;;;;22.37;100.00;99771.22;5013006;28;20029;-88
2022/09/15 09:59:54;;;;;;;14.35;1.88;;;;;;;22.49;100.00;99767.47;5029091;28;20048;-85
2022/09/15 10:02:26;;;;;;;17.08;1.90;;;;;;;22.55;100.00;99749.78;5032443;28;20033;-89
2022/09/15 10:05:19;;;;;;;15.55;1.80;;;;;;;22.57;100.00;99750.34;5028766;28;20053;-86
2022/09/15 10:07:45;;;;;;;17.00;1.33;;;;;;;22.64;100.00;99747.53;5027057;28;20039;-85
2022/09/15 10:10:31;;;;;;;15.82;1.85;;;;;;;22.63;100.00;99733.47;5007613;28;20109;-89
2022/09/15 10:13:01;;;;;;;11.52;1.65;;;;;;;22.53;100.00;99743.91;5001457;28;20112;-88
2022/09/15 10:15:32;;;;;;;15.95;2.08;;;;;;;22.47;100.00;99750.16;5012266;28;20124;-86
2022/09/15 10:18:00;;;;;;;14.40;1.38;;;;;;;22.43;100.00;99746.38;5010860;28;20033;-87
2022/09/15 10:20:34;;;;;;;13.98;2.15;;;;;;;22.41;100.00;99767.84;5029468;28;20029;-85
2022/09/15 10:23:18;;;;;;;12.63;1.23;;;;;;;22.40;100.00;99760.13;5010882;28;20519;-87
2022/09/15 10:25:44;;;;;;;13.25;1.60;;;;;;;22.38;100.00;99754.25;5020995;28;20050;-86
2022/09/15 10:28:15;;;;;;;11.43;1.90;;;;;;;22.44;100.00;99748.78;5027943;28;20030;-88
2022/09/15 10:31:07;;;;;;;16.42;2.38;;;;;;;22.51;100.00;99730.06;5011649;28;20056;-87
2022/09/15 10:33:37;;;;;;;12.20;1.30;;;;;;;22.43;100.00;99743.72;5010888;28;20285;-86
2022/09/15 10:36:20;;;;;;;7.68;1.00;;;;;;;22.38;100.00;99746.28;5011101;28;20025;-87
2022/09/15 10:39:02;;;;;;;13.15;1.75;;;;;;;22.60;100.00;99733.13;5029346;28;20033;-87
2022/09/15 10:41:30;;;;;;;12.77;1.88;;;;;;;22.57;100.00;99754.84;5027676;28;20082;-85
2022/09/15 10:44:14;;;;;;;11.05;1.92;;;;;;;22.62;100.00;99752.28;5030016;28;20088;-90
2022/09/15 10:46:52;;;;;;;10.85;1.50;;;;;;;22.73;100.00;99749.53;5012603;28;20033;-89
2022/09/15 10:49:32;;;;;;;14.13;1.50;;;;;;;22.80;100.00;99742.25;5012693;28;20575;-86
2022/09/15 10:52:19;;;;;;;11.73;1.90;;;;;;;22.95;100.00;99738.22;5030617;28;20545;-89
2022/09/15 10:55:13;;;;;;;14.50;1.10;;;;;;;22.89;100.00;99739.19;4996957;28;20089;-88
2022/09/15 10:58:00;;;;;;;16.38;1.30;;;;;;;22.86;100.00;99753.75;5011376;28;20425;-88
2022/09/15 11:00:34;;;;;;;13.95;2.05;;;;;;;22.90;100.00;99754.88;5029611;28;20122;-86
2022/09/15 11:03:23;;;;;;;12.80;2.20;;;;;;;22.94;100.00;99750.69;5028515;28;20498;-87
2022/09/15 11:06:00;;;;;;;14.20;2.15;;;;;;;22.95;100.00;99752.31;5028699;28;20053;-85
2022/09/15 11:08:45;;;;;;;12.25;1.75;;;;;;;22.88;100.00;99737.56;4998940;28;20041;-89
2022/09/15 11:11:30;;;;;;;37.40;2.10;;;;;;;22.80;100.00;99734.28;5011370;28;20041;-92
2022/09/15 11:14:12;;;;;;;10.93;1.38;;;;;;;22.74;100.00;99727.25;5009663;28;20292;-88
2022/09/15 11:16:47;;;;;;;13.00;1.50;;;;;;;22.79;100.00;99732.66;5028990;28;20060;-88
2022/09/15 11:20:11;;;;;;;10.02;1.50;;;;;;;22.81;100.00;99725.25;5032295;28;20040;-89
2022/09/15 11:23:00;;;;;;;9.10;1.15;;;;;;;22.72;100.00;99723.22;5014775;28;20083;-88
2022/09/15 11:25:31;;;;;;;7.75;1.65;;;;;;;22.69;100.00;99721.84;5024510;28;20045;-88
2022/09/15 11:28:01;;;;;;;10.07;1.42;;;;;;;22.50;100.00;99720.50;5014220;28;20528;-87
2022/09/15 11:30:52;;;;;;;10.85;1.42;;;;;;;22.41;100.00;99720.06;4995687;28;20026;-85
2022/09/15 11:33:25;;;;;;;13.98;1.77;;;;;;;22.40;100.00;99707.84;5013662;28;20052;-87
2022/09/15 11:36:10;;;;;;;8.23;1.58;;;;;;;22.44;100.00;99713.47;5022667;28;20034;-88
2022/09/15 11:38:41;;;;;;;16.67;1.88;;;;;;;22.57;100.00;99707.88;5015953;28;20060;-86
2022/09/15 11:41:17;;;;;;;8.60;1.25;;;;;;;22.70;100.00;99702.22;5013560;28;20435;-88
2022/09/15 11:44:15;;;;;;;11.52;1.40;;;;;;;22.89;100.00;99702.81;5031265;28;20036;-88